sensor_id;sensor_type;location;lat;lon;timestamp;P1;durP1;ratioP1;P2;durP2;ratioP2
74457;SDS011;62896;51.032;3.712;2022-10-13T00:01:09;16.6;;;6.3;;
74457;SDS011;62896;51.032;3.712;2022-10-13T00:04:28;16.6;;;6.3;;
74457;SDS011;62896;51.032;3.712;2022-10-13T00:07:48;16.6;;;6.3;;
74457;SDS011;62896;51.032;3.712;2022-10-13T00:11:09;13.5;;;6.9;;
74457;SDS011;62896;51.032;3.712;2022-10-13T00:14:28;13.5;;;6.9;;
74457;SDS011;62896;51.032;3.712;2022-10-13T00:17:48;13.5;;;6.9;;
74457;SDS011;62896;51.032;3.712;2022-10-13T00:21:08;13.5;;;6.9;;
74457;SDS011;62896;51.032;3.712;2022-10-13T00:24:28;13.5;;;6.9;;
74457;SDS011;62896;51.032;3.712;2022-10-13T00:27:48;13.5;;;6.9;;
74457;SDS011;62896;51.032;3.712;2022-10-13T00:31:16;13.5;;;6.9;;
74457;SDS011;62896;51.032;3.712;2022-10-13T00:34:28;13.5;;;6.9;;
74457;SDS011;62896;51.032;3.712;2022-10-13T00:37:48;15.5;;;6.9;;
74457;SDS011;62896;51.032;3.712;2022-10-13T00:41:08;15.5;;;6.9;;
74457;SDS011;62896;51.032;3.712;2022-10-13T00:45:02;15.5;;;6.9;;
74457;SDS011;62896;51.032;3.712;2022-10-13T00:47:49;15.5;;;6.9;;
74457;SDS011;62896;51.032;3.712;2022-10-13T00:51:08;15.5;;;6.9;;
74457;SDS011;62896;51.032;3.712;2022-10-13T00:54:28;15.5;;;6.9;;
74457;SDS011;62896;51.032;3.712;2022-10-13T00:57:48;15.5;;;6.9;;
74457;SDS011;62896;51.032;3.712;2022-10-13T01:01:08;14.4;;;7.3;;
74457;SDS011;62896;51.032;3.712;2022-10-13T01:04:29;14.4;;;7.3;;
74457;SDS011;62896;51.032;3.712;2022-10-13T01:07:48;14.4;;;7.3;;
74457;SDS011;62896;51.032;3.712;2022-10-13T01:11:19;14.4;;;7.3;;
74457;SDS011;62896;51.032;3.712;2022-10-13T01:14:29;14.4;;;7.3;;
74457;SDS011;62896;51.032;3.712;2022-10-13T01:17:51;14.4;;;7.3;;
74457;SDS011;62896;51.032;3.712;2022-10-13T01:21:12;14.4;;;7.3;;
74457;SDS011;62896;51.032;3.712;2022-10-13T01:24:34;14.4;;;7.3;;
74457;SDS011;62896;51.032;3.712;2022-10-13T01:27:51;12.3;;;7.1;;
74457;SDS011;62896;51.032;3.712;2022-10-13T01:31:10;12.3;;;7.1;;
74457;SDS011;62896;51.032;3.712;2022-10-13T01:34:29;12.3;;;7.1;;
74457;SDS011;62896;51.032;3.712;2022-10-13T01:37:51;12.3;;;7.1;;
74457;SDS011;62896;51.032;3.712;2022-10-13T01:41:10;12.3;;;7.1;;
74457;SDS011;62896;51.032;3.712;2022-10-13T01:44:29;12.3;;;7.1;;
74457;SDS011;62896;51.032;3.712;2022-10-13T01:47:48;12.3;;;7.1;;
74457;SDS011;62896;51.032;3.712;2022-10-13T01:51:08;14.5;;;7.6;;
74457;SDS011;62896;51.032;3.712;2022-10-13T01:54:28;14.5;;;7.6;;
74457;SDS011;62896;51.032;3.712;2022-10-13T01:57:48;14.5;;;7.6;;
74457;SDS011;62896;51.032;3.712;2022-10-13T02:01:12;14.5;;;7.6;;
74457;SDS011;62896;51.032;3.712;2022-10-13T02:04:33;14.5;;;7.6;;
74457;SDS011;62896;51.032;3.712;2022-10-13T02:07:49;14.5;;;7.6;;
74457;SDS011;62896;51.032;3.712;2022-10-13T02:11:12;14.5;;;7.6;;
74457;SDS011;62896;51.032;3.712;2022-10-13T02:14:28;14.5;;;7.6;;
74457;SDS011;62896;51.032;3.712;2022-10-13T02:17:48;13.7;;;6.7;;
74457;SDS011;62896;51.032;3.712;2022-10-13T02:21:08;13.7;;;6.7;;
74457;SDS011;62896;51.032;3.712;2022-10-13T02:24:28;13.7;;;6.7;;
74457;SDS011;62896;51.032;3.712;2022-10-13T02:27:48;13.7;;;6.7;;
74457;SDS011;62896;51.032;3.712;2022-10-13T02:31:08;13.7;;;6.7;;
74457;SDS011;62896;51.032;3.712;2022-10-13T02:34:28;13.7;;;6.7;;
74457;SDS011;62896;51.032;3.712;2022-10-13T02:37:48;13.7;;;6.7;;
74457;SDS011;62896;51.032;3.712;2022-10-13T02:41:08;17.6;;;7.2;;
74457;SDS011;62896;51.032;3.712;2022-10-13T02:44:28;17.6;;;7.2;;
74457;SDS011;62896;51.032;3.712;2022-10-13T02:47:48;17.6;;;7.2;;
74457;SDS011;62896;51.032;3.712;2022-10-13T02:51:08;17.6;;;7.2;;
74457;SDS011;62896;51.032;3.712;2022-10-13T02:54:28;17.6;;;7.2;;
74457;SDS011;62896;51.032;3.712;2022-10-13T02:57:48;17.6;;;7.2;;
74457;SDS011;62896;51.032;3.712;2022-10-13T03:01:08;17.6;;;7.2;;
74457;SDS011;62896;51.032;3.712;2022-10-13T03:04:28;17.6;;;7.2;;
74457;SDS011;62896;51.032;3.712;2022-10-13T03:07:48;14.5;;;6.2;;
74457;SDS011;62896;51.032;3.712;2022-10-13T03:11:08;14.5;;;6.2;;
74457;SDS011;62896;51.032;3.712;2022-10-13T03:14:28;14.5;;;6.2;;
74457;SDS011;62896;51.032;3.712;2022-10-13T03:17:48;14.5;;;6.2;;
74457;SDS011;62896;51.032;3.712;2022-10-13T03:21:08;14.5;;;6.2;;
74457;SDS011;62896;51.032;3.712;2022-10-13T03:24:28;14.5;;;6.2;;
74457;SDS011;62896;51.032;3.712;2022-10-13T03:27:48;14.5;;;6.2;;
74457;SDS011;62896;51.032;3.712;2022-10-13T03:31:09;12.6;;;6.6;;
74457;SDS011;62896;51.032;3.712;2022-10-13T03:34:28;12.6;;;6.6;;
74457;SDS011;62896;51.032;3.712;2022-10-13T03:37:48;12.6;;;6.6;;
74457;SDS011;62896;51.032;3.712;2022-10-13T03:41:09;12.6;;;6.6;;
74457;SDS011;62896;51.032;3.712;2022-10-13T03:44:28;12.6;;;6.6;;
74457;SDS011;62896;51.032;3.712;2022-10-13T03:47:48;12.6;;;6.6;;
74457;SDS011;62896;51.032;3.712;2022-10-13T03:51:08;12.6;;;6.6;;
74457;SDS011;62896;51.032;3.712;2022-10-13T03:54:28;12.6;;;6.6;;
74457;SDS011;62896;51.032;3.712;2022-10-13T03:57:48;11.5;;;6.2;;
74457;SDS011;62896;51.032;3.712;2022-10-13T04:01:09;11.5;;;6.2;;
74457;SDS011;62896;51.032;3.712;2022-10-13T04:04:28;11.5;;;6.2;;
74457;SDS011;62896;51.032;3.712;2022-10-13T04:07:48;11.5;;;6.2;;
74457;SDS011;62896;51.032;3.712;2022-10-13T04:11:09;11.5;;;6.2;;
74457;SDS011;62896;51.032;3.712;2022-10-13T04:14:28;11.5;;;6.2;;
74457;SDS011;62896;51.032;3.712;2022-10-13T04:17:48;11.5;;;6.2;;
74457;SDS011;62896;51.032;3.712;2022-10-13T04:21:08;15.9;;;7.1;;
74457;SDS011;62896;51.032;3.712;2022-10-13T04:24:28;15.9;;;7.1;;
74457;SDS011;62896;51.032;3.712;2022-10-13T04:27:48;15.9;;;7.1;;
74457;SDS011;62896;51.032;3.712;2022-10-13T04:31:08;15.9;;;7.1;;
74457;SDS011;62896;51.032;3.712;2022-10-13T04:34:28;15.9;;;7.1;;
74457;SDS011;62896;51.032;3.712;2022-10-13T04:37:48;15.9;;;7.1;;
74457;SDS011;62896;51.032;3.712;2022-10-13T04:41:08;15.9;;;7.1;;
74457;SDS011;62896;51.032;3.712;2022-10-13T04:44:28;15.9;;;7.1;;
74457;SDS011;62896;51.032;3.712;2022-10-13T04:47:48;13.2;;;7.2;;
74457;SDS011;62896;51.032;3.712;2022-10-13T04:51:09;13.2;;;7.2;;
74457;SDS011;62896;51.032;3.712;2022-10-13T04:54:28;13.2;;;7.2;;
74457;SDS011;62896;51.032;3.712;2022-10-13T04:57:48;13.2;;;7.2;;
74457;SDS011;62896;51.032;3.712;2022-10-13T05:01:10;13.2;;;7.2;;
74457;SDS011;62896;51.032;3.712;2022-10-13T05:04:28;13.2;;;7.2;;
74457;SDS011;62896;51.032;3.712;2022-10-13T05:07:48;13.2;;;7.2;;
74457;SDS011;62896;51.032;3.712;2022-10-13T05:11:08;19.7;;;7.3;;
74457;SDS011;62896;51.032;3.712;2022-10-13T05:14:28;19.7;;;7.3;;
74457;SDS011;62896;51.032;3.712;2022-10-13T05:17:48;19.7;;;7.3;;
74457;SDS011;62896;51.032;3.712;2022-10-13T05:21:08;19.7;;;7.3;;
74457;SDS011;62896;51.032;3.712;2022-10-13T05:24:28;19.7;;;7.3;;
74457;SDS011;62896;51.032;3.712;2022-10-13T05:27:48;19.7;;;7.3;;
74457;SDS011;62896;51.032;3.712;2022-10-13T05:31:08;19.7;;;7.3;;
74457;SDS011;62896;51.032;3.712;2022-10-13T05:34:28;19.7;;;7.3;;
74457;SDS011;62896;51.032;3.712;2022-10-13T05:37:48;15.8;;;7.9;;
74457;SDS011;62896;51.032;3.712;2022-10-13T05:41:08;15.8;;;7.9;;
74457;SDS011;62896;51.032;3.712;2022-10-13T05:44:28;15.8;;;7.9;;
74457;SDS011;62896;51.032;3.712;2022-10-13T05:47:48;15.8;;;7.9;;
74457;SDS011;62896;51.032;3.712;2022-10-13T05:51:10;15.8;;;7.9;;
74457;SDS011;62896;51.032;3.712;2022-10-13T05:54:28;15.8;;;7.9;;
74457;SDS011;62896;51.032;3.712;2022-10-13T05:57:48;15.8;;;7.9;;
74457;SDS011;62896;51.032;3.712;2022-10-13T06:01:09;20.3;;;9.3;;
74457;SDS011;62896;51.032;3.712;2022-10-13T06:04:29;20.3;;;9.3;;
74457;SDS011;62896;51.032;3.712;2022-10-13T06:07:48;20.3;;;9.3;;
74457;SDS011;62896;51.032;3.712;2022-10-13T06:11:08;20.3;;;9.3;;
74457;SDS011;62896;51.032;3.712;2022-10-13T06:14:28;20.3;;;9.3;;
74457;SDS011;62896;51.032;3.712;2022-10-13T06:17:48;20.3;;;9.3;;
74457;SDS011;62896;51.032;3.712;2022-10-13T06:21:08;20.3;;;9.3;;
74457;SDS011;62896;51.032;3.712;2022-10-13T06:24:28;20.3;;;9.3;;
74457;SDS011;62896;51.032;3.712;2022-10-13T06:27:48;19.1;;;9.4;;
74457;SDS011;62896;51.032;3.712;2022-10-13T06:31:08;19.1;;;9.4;;
74457;SDS011;62896;51.032;3.712;2022-10-13T06:34:28;19.1;;;9.4;;
74457;SDS011;62896;51.032;3.712;2022-10-13T06:37:48;19.1;;;9.4;;
74457;SDS011;62896;51.032;3.712;2022-10-13T06:41:08;19.1;;;9.4;;
74457;SDS011;62896;51.032;3.712;2022-10-13T06:44:28;19.1;;;9.4;;
74457;SDS011;62896;51.032;3.712;2022-10-13T06:47:48;19.1;;;9.4;;
74457;SDS011;62896;51.032;3.712;2022-10-13T06:51:08;28.7;;;11.1;;
74457;SDS011;62896;51.032;3.712;2022-10-13T06:54:28;28.7;;;11.1;;
74457;SDS011;62896;51.032;3.712;2022-10-13T06:57:48;28.7;;;11.1;;
74457;SDS011;62896;51.032;3.712;2022-10-13T07:01:09;28.7;;;11.1;;
74457;SDS011;62896;51.032;3.712;2022-10-13T07:04:28;28.7;;;11.1;;
74457;SDS011;62896;51.032;3.712;2022-10-13T07:07:50;28.7;;;11.1;;
74457;SDS011;62896;51.032;3.712;2022-10-13T07:11:08;28.7;;;11.1;;
74457;SDS011;62896;51.032;3.712;2022-10-13T07:14:27;28.7;;;11.1;;
74457;SDS011;62896;51.032;3.712;2022-10-13T07:17:47;21.3;;;11.4;;
74457;SDS011;62896;51.032;3.712;2022-10-13T07:21:08;21.3;;;11.4;;
74457;SDS011;62896;51.032;3.712;2022-10-13T07:24:28;21.3;;;11.4;;
74457;SDS011;62896;51.032;3.712;2022-10-13T07:27:48;21.3;;;11.4;;
74457;SDS011;62896;51.032;3.712;2022-10-13T07:31:08;21.3;;;11.4;;
74457;SDS011;62896;51.032;3.712;2022-10-13T07:34:28;21.3;;;11.4;;
74457;SDS011;62896;51.032;3.712;2022-10-13T07:37:48;21.3;;;11.4;;
74457;SDS011;62896;51.032;3.712;2022-10-13T07:41:08;26.4;;;11.6;;
74457;SDS011;62896;51.032;3.712;2022-10-13T07:44:28;26.4;;;11.6;;
74457;SDS011;62896;51.032;3.712;2022-10-13T07:47:47;26.4;;;11.6;;
74457;SDS011;62896;51.032;3.712;2022-10-13T07:51:09;26.4;;;11.6;;
74457;SDS011;62896;51.032;3.712;2022-10-13T07:54:28;26.4;;;11.6;;
74457;SDS011;62896;51.032;3.712;2022-10-13T07:57:47;26.4;;;11.6;;
74457;SDS011;62896;51.032;3.712;2022-10-13T08:01:08;26.4;;;11.6;;
74457;SDS011;62896;51.032;3.712;2022-10-13T08:04:28;26.4;;;11.6;;
74457;SDS011;62896;51.032;3.712;2022-10-13T08:07:48;17.4;;;9.4;;
74457;SDS011;62896;51.032;3.712;2022-10-13T08:11:10;17.4;;;9.4;;
74457;SDS011;62896;51.032;3.712;2022-10-13T08:14:28;17.4;;;9.4;;
74457;SDS011;62896;51.032;3.712;2022-10-13T08:17:48;17.4;;;9.4;;
74457;SDS011;62896;51.032;3.712;2022-10-13T08:21:08;17.4;;;9.4;;
74457;SDS011;62896;51.032;3.712;2022-10-13T08:24:27;17.4;;;9.4;;
74457;SDS011;62896;51.032;3.712;2022-10-13T08:27:48;17.4;;;9.4;;
74457;SDS011;62896;51.032;3.712;2022-10-13T08:31:07;23.6;;;11.4;;
74457;SDS011;62896;51.032;3.712;2022-10-13T08:34:27;23.6;;;11.4;;
74457;SDS011;62896;51.032;3.712;2022-10-13T08:37:47;23.6;;;11.4;;
74457;SDS011;62896;51.032;3.712;2022-10-13T08:41:13;23.6;;;11.4;;
74457;SDS011;62896;51.032;3.712;2022-10-13T08:44:29;23.6;;;11.4;;
74457;SDS011;62896;51.032;3.712;2022-10-13T08:47:48;23.6;;;11.4;;
74457;SDS011;62896;51.032;3.712;2022-10-13T08:51:10;23.6;;;11.4;;
74457;SDS011;62896;51.032;3.712;2022-10-13T08:54:27;23.6;;;11.4;;
74457;SDS011;62896;51.032;3.712;2022-10-13T08:57:47;23.6;;;10.7;;
74457;SDS011;62896;51.032;3.712;2022-10-13T09:01:10;23.6;;;10.7;;
74457;SDS011;62896;51.032;3.712;2022-10-13T09:04:28;23.6;;;10.7;;
74457;SDS011;62896;51.032;3.712;2022-10-13T09:07:47;23.6;;;10.7;;
74457;SDS011;62896;51.032;3.712;2022-10-13T09:11:08;23.6;;;10.7;;
74457;SDS011;62896;51.032;3.712;2022-10-13T09:14:28;23.6;;;10.7;;
74457;SDS011;62896;51.032;3.712;2022-10-13T09:18:04;23.6;;;10.7;;
74457;SDS011;62896;51.032;3.712;2022-10-13T09:21:08;23;;;10.9;;
74457;SDS011;62896;51.032;3.712;2022-10-13T09:24:27;23;;;10.9;;
74457;SDS011;62896;51.032;3.712;2022-10-13T09:27:48;23;;;10.9;;
74457;SDS011;62896;51.032;3.712;2022-10-13T09:31:12;23;;;10.9;;
74457;SDS011;62896;51.032;3.712;2022-10-13T09:34:28;23;;;10.9;;
74457;SDS011;62896;51.032;3.712;2022-10-13T09:38:00;23;;;10.9;;
74457;SDS011;62896;51.032;3.712;2022-10-13T09:41:12;23;;;10.9;;
74457;SDS011;62896;51.032;3.712;2022-10-13T09:44:29;23;;;10.9;;
74457;SDS011;62896;51.032;3.712;2022-10-13T09:47:48;20.3;;;9.4;;
74457;SDS011;62896;51.032;3.712;2022-10-13T09:51:10;20.3;;;9.4;;
74457;SDS011;62896;51.032;3.712;2022-10-13T09:54:32;20.3;;;9.4;;
74457;SDS011;62896;51.032;3.712;2022-10-13T09:57:47;20.3;;;9.4;;
74457;SDS011;62896;51.032;3.712;2022-10-13T10:01:09;20.3;;;9.4;;
74457;SDS011;62896;51.032;3.712;2022-10-13T10:04:29;20.3;;;9.4;;
74457;SDS011;62896;51.032;3.712;2022-10-13T10:07:48;20.3;;;9.4;;
74457;SDS011;62896;51.032;3.712;2022-10-13T10:11:09;18.3;;;10.3;;
74457;SDS011;62896;51.032;3.712;2022-10-13T10:14:29;18.3;;;10.3;;
74457;SDS011;62896;51.032;3.712;2022-10-13T10:17:50;18.3;;;10.3;;
74457;SDS011;62896;51.032;3.712;2022-10-13T10:21:09;18.3;;;10.3;;
74457;SDS011;62896;51.032;3.712;2022-10-13T10:24:29;18.3;;;10.3;;
74457;SDS011;62896;51.032;3.712;2022-10-13T10:27:50;18.3;;;10.3;;
74457;SDS011;62896;51.032;3.712;2022-10-13T10:31:10;18.3;;;10.3;;
74457;SDS011;62896;51.032;3.712;2022-10-13T10:34:36;18.3;;;10.3;;
74457;SDS011;62896;51.032;3.712;2022-10-13T10:37:58;22.9;;;9.5;;
74457;SDS011;62896;51.032;3.712;2022-10-13T10:41:11;22.9;;;9.5;;
74457;SDS011;62896;51.032;3.712;2022-10-13T10:44:28;22.9;;;9.5;;
74457;SDS011;62896;51.032;3.712;2022-10-13T10:47:49;22.9;;;9.5;;
74457;SDS011;62896;51.032;3.712;2022-10-13T10:51:08;22.9;;;9.5;;
74457;SDS011;62896;51.032;3.712;2022-10-13T10:54:30;22.9;;;9.5;;
74457;SDS011;62896;51.032;3.712;2022-10-13T10:57:50;22.9;;;9.5;;
74457;SDS011;62896;51.032;3.712;2022-10-13T11:01:13;17.5;;;10.8;;
74457;SDS011;62896;51.032;3.712;2022-10-13T11:04:30;17.5;;;10.8;;
74457;SDS011;62896;51.032;3.712;2022-10-13T11:08:23;17.5;;;10.8;;
74457;SDS011;62896;51.032;3.712;2022-10-13T11:11:40;17.5;;;10.8;;
74457;SDS011;62896;51.032;3.712;2022-10-13T11:14:28;17.5;;;10.8;;
74457;SDS011;62896;51.032;3.712;2022-10-13T11:17:48;17.5;;;10.8;;
74457;SDS011;62896;51.032;3.712;2022-10-13T11:21:08;17.5;;;10.8;;
74457;SDS011;62896;51.032;3.712;2022-10-13T11:24:44;17.5;;;10.8;;
74457;SDS011;62896;51.032;3.712;2022-10-13T11:27:48;22.3;;;11;;
74457;SDS011;62896;51.032;3.712;2022-10-13T11:31:26;22.3;;;11;;
74457;SDS011;62896;51.032;3.712;2022-10-13T11:34:29;22.3;;;11;;
74457;SDS011;62896;51.032;3.712;2022-10-13T11:37:50;22.3;;;11;;
74457;SDS011;62896;51.032;3.712;2022-10-13T11:41:10;22.3;;;11;;
74457;SDS011;62896;51.032;3.712;2022-10-13T11:44:29;22.3;;;11;;
74457;SDS011;62896;51.032;3.712;2022-10-13T11:47:52;22.3;;;11;;
74457;SDS011;62896;51.032;3.712;2022-10-13T11:51:13;19.8;;;11.4;;
74457;SDS011;62896;51.032;3.712;2022-10-13T11:54:30;19.8;;;11.4;;
74457;SDS011;62896;51.032;3.712;2022-10-13T11:57:48;19.8;;;11.4;;
74457;SDS011;62896;51.032;3.712;2022-10-13T12:01:11;19.8;;;11.4;;
74457;SDS011;62896;51.032;3.712;2022-10-13T12:04:28;19.8;;;11.4;;
74457;SDS011;62896;51.032;3.712;2022-10-13T12:07:48;19.8;;;11.4;;
74457;SDS011;62896;51.032;3.712;2022-10-13T12:11:14;19.8;;;11.4;;
74457;SDS011;62896;51.032;3.712;2022-10-13T12:14:30;19.8;;;11.4;;
74457;SDS011;62896;51.032;3.712;2022-10-13T12:17:48;18.9;;;10.6;;
74457;SDS011;62896;51.032;3.712;2022-10-13T12:21:09;18.9;;;10.6;;
74457;SDS011;62896;51.032;3.712;2022-10-13T12:24:28;18.9;;;10.6;;
74457;SDS011;62896;51.032;3.712;2022-10-13T12:27:49;18.9;;;10.6;;
74457;SDS011;62896;51.032;3.712;2022-10-13T12:31:14;18.9;;;10.6;;
74457;SDS011;62896;51.032;3.712;2022-10-13T12:34:28;18.9;;;10.6;;
74457;SDS011;62896;51.032;3.712;2022-10-13T12:37:48;18.9;;;10.6;;
74457;SDS011;62896;51.032;3.712;2022-10-13T12:41:08;21.2;;;11.8;;
74457;SDS011;62896;51.032;3.712;2022-10-13T12:44:29;21.2;;;11.8;;
74457;SDS011;62896;51.032;3.712;2022-10-13T12:47:48;21.2;;;11.8;;
74457;SDS011;62896;51.032;3.712;2022-10-13T12:51:11;21.2;;;11.8;;
74457;SDS011;62896;51.032;3.712;2022-10-13T12:54:28;21.2;;;11.8;;
74457;SDS011;62896;51.032;3.712;2022-10-13T12:57:48;21.2;;;11.8;;
74457;SDS011;62896;51.032;3.712;2022-10-13T13:01:15;21.2;;;11.8;;
74457;SDS011;62896;51.032;3.712;2022-10-13T13:04:29;21.2;;;11.8;;
74457;SDS011;62896;51.032;3.712;2022-10-13T13:07:51;18.9;;;11.3;;
74457;SDS011;62896;51.032;3.712;2022-10-13T13:11:18;18.9;;;11.3;;
74457;SDS011;62896;51.032;3.712;2022-10-13T13:14:33;18.9;;;11.3;;
74457;SDS011;62896;51.032;3.712;2022-10-13T13:17:48;18.9;;;11.3;;
74457;SDS011;62896;51.032;3.712;2022-10-13T13:21:09;18.9;;;11.3;;
74457;SDS011;62896;51.032;3.712;2022-10-13T13:24:28;18.9;;;11.3;;
74457;SDS011;62896;51.032;3.712;2022-10-13T13:27:48;18.9;;;11.3;;
74457;SDS011;62896;51.032;3.712;2022-10-13T13:31:08;21.4;;;12.5;;
74457;SDS011;62896;51.032;3.712;2022-10-13T13:34:28;21.4;;;12.5;;
74457;SDS011;62896;51.032;3.712;2022-10-13T13:37:48;21.4;;;12.5;;
74457;SDS011;62896;51.032;3.712;2022-10-13T13:41:08;21.4;;;12.5;;
74457;SDS011;62896;51.032;3.712;2022-10-13T13:44:28;21.4;;;12.5;;
74457;SDS011;62896;51.032;3.712;2022-10-13T13:47:48;21.4;;;12.5;;
74457;SDS011;62896;51.032;3.712;2022-10-13T13:51:08;21.4;;;12.5;;
74457;SDS011;62896;51.032;3.712;2022-10-13T13:54:28;21.4;;;12.5;;
74457;SDS011;62896;51.032;3.712;2022-10-13T13:57:48;24;;;14.1;;
74457;SDS011;62896;51.032;3.712;2022-10-13T14:01:08;24;;;14.1;;
74457;SDS011;62896;51.032;3.712;2022-10-13T14:04:28;24;;;14.1;;
74457;SDS011;62896;51.032;3.712;2022-10-13T14:07:48;24;;;14.1;;
74457;SDS011;62896;51.032;3.712;2022-10-13T14:11:08;24;;;14.1;;
74457;SDS011;62896;51.032;3.712;2022-10-13T14:14:28;24;;;14.1;;
74457;SDS011;62896;51.032;3.712;2022-10-13T14:17:50;24;;;14.1;;
74457;SDS011;62896;51.032;3.712;2022-10-13T14:21:08;27.8;;;15.9;;
74457;SDS011;62896;51.032;3.712;2022-10-13T14:24:28;27.8;;;15.9;;
74457;SDS011;62896;51.032;3.712;2022-10-13T14:27:48;27.8;;;15.9;;
74457;SDS011;62896;51.032;3.712;2022-10-13T14:31:08;27.8;;;15.9;;
74457;SDS011;62896;51.032;3.712;2022-10-13T14:34:28;27.8;;;15.9;;
74457;SDS011;62896;51.032;3.712;2022-10-13T14:37:48;27.8;;;15.9;;
74457;SDS011;62896;51.032;3.712;2022-10-13T14:41:08;27.8;;;15.9;;
74457;SDS011;62896;51.032;3.712;2022-10-13T14:44:28;27.8;;;15.9;;
74457;SDS011;62896;51.032;3.712;2022-10-13T14:47:48;23.1;;;14.9;;
74457;SDS011;62896;51.032;3.712;2022-10-13T14:51:09;23.1;;;14.9;;
74457;SDS011;62896;51.032;3.712;2022-10-13T14:54:28;23.1;;;14.9;;
74457;SDS011;62896;51.032;3.712;2022-10-13T14:57:48;23.1;;;14.9;;
74457;SDS011;62896;51.032;3.712;2022-10-13T15:01:08;23.1;;;14.9;;
74457;SDS011;62896;51.032;3.712;2022-10-13T15:04:28;23.1;;;14.9;;
74457;SDS011;62896;51.032;3.712;2022-10-13T15:07:48;23.1;;;14.9;;
74457;SDS011;62896;51.032;3.712;2022-10-13T15:11:08;20.9;;;13.1;;
74457;SDS011;62896;51.032;3.712;2022-10-13T15:14:28;20.9;;;13.1;;
74457;SDS011;62896;51.032;3.712;2022-10-13T15:17:48;20.9;;;13.1;;
74457;SDS011;62896;51.032;3.712;2022-10-13T15:21:08;20.9;;;13.1;;
74457;SDS011;62896;51.032;3.712;2022-10-13T15:24:28;20.9;;;13.1;;
74457;SDS011;62896;51.032;3.712;2022-10-13T15:27:48;20.9;;;13.1;;
74457;SDS011;62896;51.032;3.712;2022-10-13T15:31:08;20.9;;;13.1;;
74457;SDS011;62896;51.032;3.712;2022-10-13T15:34:28;20.9;;;13.1;;
74457;SDS011;62896;51.032;3.712;2022-10-13T15:37:48;25.8;;;16.5;;
74457;SDS011;62896;51.032;3.712;2022-10-13T15:41:08;25.8;;;16.5;;
74457;SDS011;62896;51.032;3.712;2022-10-13T15:44:28;25.8;;;16.5;;
74457;SDS011;62896;51.032;3.712;2022-10-13T15:47:48;25.8;;;16.5;;
74457;SDS011;62896;51.032;3.712;2022-10-13T15:51:08;25.8;;;16.5;;
74457;SDS011;62896;51.032;3.712;2022-10-13T15:54:28;25.8;;;16.5;;
74457;SDS011;62896;51.032;3.712;2022-10-13T15:57:48;25.8;;;16.5;;
74457;SDS011;62896;51.032;3.712;2022-10-13T16:01:08;21.3;;;14.9;;
74457;SDS011;62896;51.032;3.712;2022-10-13T16:04:27;21.3;;;14.9;;
74457;SDS011;62896;51.032;3.712;2022-10-13T16:07:47;21.3;;;14.9;;
74457;SDS011;62896;51.032;3.712;2022-10-13T16:11:07;21.3;;;14.9;;
74457;SDS011;62896;51.032;3.712;2022-10-13T16:14:27;21.3;;;14.9;;
74457;SDS011;62896;51.032;3.712;2022-10-13T16:17:47;21.3;;;14.9;;
74457;SDS011;62896;51.032;3.712;2022-10-13T16:21:08;21.3;;;14.9;;
74457;SDS011;62896;51.032;3.712;2022-10-13T16:24:27;21.3;;;14.9;;
74457;SDS011;62896;51.032;3.712;2022-10-13T16:27:47;21;;;15.2;;
74457;SDS011;62896;51.032;3.712;2022-10-13T16:31:08;21;;;15.2;;
74457;SDS011;62896;51.032;3.712;2022-10-13T16:34:27;21;;;15.2;;
74457;SDS011;62896;51.032;3.712;2022-10-13T16:37:47;21;;;15.2;;
74457;SDS011;62896;51.032;3.712;2022-10-13T16:41:09;21;;;15.2;;
74457;SDS011;62896;51.032;3.712;2022-10-13T16:44:27;21;;;15.2;;
74457;SDS011;62896;51.032;3.712;2022-10-13T16:47:49;21;;;15.2;;
74457;SDS011;62896;51.032;3.712;2022-10-13T16:51:08;21.3;;;13.7;;
74457;SDS011;62896;51.032;3.712;2022-10-13T16:54:27;21.3;;;13.7;;
74457;SDS011;62896;51.032;3.712;2022-10-13T16:57:47;21.3;;;13.7;;
74457;SDS011;62896;51.032;3.712;2022-10-13T17:01:08;21.3;;;13.7;;
74457;SDS011;62896;51.032;3.712;2022-10-13T17:04:27;21.3;;;13.7;;
74457;SDS011;62896;51.032;3.712;2022-10-13T17:07:47;21.3;;;13.7;;
74457;SDS011;62896;51.032;3.712;2022-10-13T17:11:07;21.3;;;13.7;;
74457;SDS011;62896;51.032;3.712;2022-10-13T17:14:27;21.3;;;13.7;;
74457;SDS011;62896;51.032;3.712;2022-10-13T17:17:47;29.7;;;19.6;;
74457;SDS011;62896;51.032;3.712;2022-10-13T17:21:08;29.7;;;19.6;;
74457;SDS011;62896;51.032;3.712;2022-10-13T17:24:27;29.7;;;19.6;;
74457;SDS011;62896;51.032;3.712;2022-10-13T17:27:47;29.7;;;19.6;;
74457;SDS011;62896;51.032;3.712;2022-10-13T17:31:08;29.7;;;19.6;;
74457;SDS011;62896;51.032;3.712;2022-10-13T17:34:27;29.7;;;19.6;;
74457;SDS011;62896;51.032;3.712;2022-10-13T17:37:47;29.7;;;19.6;;
74457;SDS011;62896;51.032;3.712;2022-10-13T17:41:07;21.7;;;14.5;;
74457;SDS011;62896;51.032;3.712;2022-10-13T17:44:27;21.7;;;14.5;;
74457;SDS011;62896;51.032;3.712;2022-10-13T17:47:47;21.7;;;14.5;;
74457;SDS011;62896;51.032;3.712;2022-10-13T17:51:08;21.7;;;14.5;;
74457;SDS011;62896;51.032;3.712;2022-10-13T17:54:27;21.7;;;14.5;;
74457;SDS011;62896;51.032;3.712;2022-10-13T17:57:47;21.7;;;14.5;;
74457;SDS011;62896;51.032;3.712;2022-10-13T18:01:07;21.7;;;14.5;;
74457;SDS011;62896;51.032;3.712;2022-10-13T18:04:27;21.7;;;14.5;;
74457;SDS011;62896;51.032;3.712;2022-10-13T18:07:47;14.8;;;10.8;;
74457;SDS011;62896;51.032;3.712;2022-10-13T18:11:08;14.8;;;10.8;;
74457;SDS011;62896;51.032;3.712;2022-10-13T18:14:27;14.8;;;10.8;;
74457;SDS011;62896;51.032;3.712;2022-10-13T18:17:47;14.8;;;10.8;;
74457;SDS011;62896;51.032;3.712;2022-10-13T18:21:09;14.8;;;10.8;;
74457;SDS011;62896;51.032;3.712;2022-10-13T18:24:27;14.8;;;10.8;;
74457;SDS011;62896;51.032;3.712;2022-10-13T18:27:47;14.8;;;10.8;;
74457;SDS011;62896;51.032;3.712;2022-10-13T18:31:08;12.1;;;9.6;;
74457;SDS011;62896;51.032;3.712;2022-10-13T18:34:27;12.1;;;9.6;;
74457;SDS011;62896;51.032;3.712;2022-10-13T18:37:48;12.1;;;9.6;;
74457;SDS011;62896;51.032;3.712;2022-10-13T18:41:07;12.1;;;9.6;;
74457;SDS011;62896;51.032;3.712;2022-10-13T18:44:27;12.1;;;9.6;;
74457;SDS011;62896;51.032;3.712;2022-10-13T18:47:49;12.1;;;9.6;;
74457;SDS011;62896;51.032;3.712;2022-10-13T18:51:08;12.1;;;9.6;;
74457;SDS011;62896;51.032;3.712;2022-10-13T18:54:27;12.1;;;9.6;;
74457;SDS011;62896;51.032;3.712;2022-10-13T18:57:47;14.9;;;10.5;;
74457;SDS011;62896;51.032;3.712;2022-10-13T19:01:08;14.9;;;10.5;;
74457;SDS011;62896;51.032;3.712;2022-10-13T19:04:27;14.9;;;10.5;;
74457;SDS011;62896;51.032;3.712;2022-10-13T19:07:47;14.9;;;10.5;;
74457;SDS011;62896;51.032;3.712;2022-10-13T19:11:09;14.9;;;10.5;;
74457;SDS011;62896;51.032;3.712;2022-10-13T19:14:27;14.9;;;10.5;;
74457;SDS011;62896;51.032;3.712;2022-10-13T19:17:47;14.9;;;10.5;;
74457;SDS011;62896;51.032;3.712;2022-10-13T19:21:08;19.8;;;13.9;;
74457;SDS011;62896;51.032;3.712;2022-10-13T19:24:27;19.8;;;13.9;;
74457;SDS011;62896;51.032;3.712;2022-10-13T19:27:47;19.8;;;13.9;;
74457;SDS011;62896;51.032;3.712;2022-10-13T19:31:07;19.8;;;13.9;;
74457;SDS011;62896;51.032;3.712;2022-10-13T19:34:27;19.8;;;13.9;;
74457;SDS011;62896;51.032;3.712;2022-10-13T19:37:47;19.8;;;13.9;;
74457;SDS011;62896;51.032;3.712;2022-10-13T19:41:07;19.8;;;13.9;;
74457;SDS011;62896;51.032;3.712;2022-10-13T19:44:27;19.8;;;13.9;;
74457;SDS011;62896;51.032;3.712;2022-10-13T19:47:47;22.6;;;16.2;;
74457;SDS011;62896;51.032;3.712;2022-10-13T19:51:07;22.6;;;16.2;;
74457;SDS011;62896;51.032;3.712;2022-10-13T19:54:27;22.6;;;16.2;;
74457;SDS011;62896;51.032;3.712;2022-10-13T19:57:47;22.6;;;16.2;;
74457;SDS011;62896;51.032;3.712;2022-10-13T20:01:07;22.6;;;16.2;;
74457;SDS011;62896;51.032;3.712;2022-10-13T20:04:27;22.6;;;16.2;;
74457;SDS011;62896;51.032;3.712;2022-10-13T20:11:07;25.6;;;19.2;;
74457;SDS011;62896;51.032;3.712;2022-10-13T20:14:27;25.6;;;19.2;;
74457;SDS011;62896;51.032;3.712;2022-10-13T20:17:47;25.6;;;19.2;;